St. George, AK

10:12 AM AKDT on April 28, 2017 (GMT -0800)
Saint George

Weather History for PAPB - October, 2013

Change the Weather History Date:

Monday, October 7, 2013

  Actual Average Record
Temperature  
Mean Temperature 44 °F -  
Max Temperature 45 °F 43 °F 48 °F (2016)
Min Temperature 42 °F 36 °F 28 °F (2008)
Degree Days  
Heating Degree Days 21    
Moisture  
Dew Point 43 °F    
Average Humidity 95    
Maximum Humidity 100    
Minimum Humidity 70    
Precipitation  
Precipitation 0.18 in - - ()
Sea Level Pressure  
Sea Level Pressure 29.28 in    
Wind  
Wind Speed 13 mph (SSW)    
Max Wind Speed 25 mph    
Max Gust Speed 37 mph    
Visibility 8 miles    
Events Rain    
Averages and records for this station are not official NWS values.
T = Trace of Precipitation, MM = Missing Value Source: NWS Daily Summary

Daily Weather History Graph

Daily Weather History Graph

Search for Another Location

Airport or City:

Trip Planner

Search our weather history database for the weather conditions in past years. The results will help you decide how hot, cold, wet, or windy it might be!

Date:

Astronomy

Oct. 07, 2013 Rise Set
Actual Time 9:35 AM AKDT 8:36 PM AKDT
Civil Twilight 8:57 AM AKDT 9:13 PM AKDT
Nautical Twilight 8:13 AM AKDT 9:57 PM AKDT
Astronomical Twilight 7:29 AM AKDT 10:41 PM AKDT
Moon 1:18 PM AKDT (10/7) 9:50 PM AKDT (10/7)
Length of Visible Light 12h 16m
Length of Day
11h 00m
Waxing Crescent, 9% of the Moon is Illuminated
Oct 7
Waxing Crescent
Oct 11
First Quarter
Oct 18
Full
Oct 26
Last Quarter
Nov 3
New

Hourly Weather History & Observations

Time (AKDT) Temp. Windchill Dew Point Humidity Pressure Visibility Wind Dir Wind Speed Gust Speed Precip Events Conditions
12:20 AM 44.6 °F 38.1 °F 44.6 °F 100% 29.55 in 7.0 mi South 13.8 mph - N/A   Overcast
12:30 AM 44.6 °F 38.4 °F 44.6 °F 100% 29.55 in 6.0 mi South 12.7 mph - N/A   Overcast
12:34 AM 44.6 °F 38.4 °F 44.6 °F 100% 29.55 in 6.0 mi South 12.7 mph - N/A   Overcast
12:44 AM 44.6 °F 38.1 °F 44.6 °F 100% 29.55 in 5.0 mi South 13.8 mph - N/A   Overcast
12:53 AM 46.0 °F 39.6 °F 45.0 °F 96% 29.51 in 5.0 mi South 15.0 mph 19.6 mph N/A   Overcast
1:07 AM 44.6 °F 37.4 °F 44.6 °F 100% 29.54 in 6.0 mi South 16.1 mph - N/A   Overcast
1:40 AM 44.6 °F 39.7 °F 44.6 °F 100% 29.52 in 2.5 mi South 9.2 mph - 0.00 in Rain Light Rain
1:53 AM 44.1 °F 39.0 °F 44.1 °F 100% 29.49 in 2.5 mi South 9.2 mph - 0.00 in Rain Light Rain
2:22 AM 44.6 °F 37.8 °F 44.6 °F 100% 29.51 in 5.0 mi South 15.0 mph 20.7 mph 0.01 in   Overcast
2:38 AM 44.6 °F 38.4 °F 44.6 °F 100% 29.51 in 6.0 mi South 12.7 mph - 0.01 in   Overcast
2:53 AM 45.0 °F 38.5 °F 44.1 °F 97% 29.47 in 6.0 mi South 13.8 mph - 0.01 in   Overcast
3:35 AM 44.6 °F 37.4 °F 44.6 °F 100% 29.49 in 7.0 mi South 16.1 mph - N/A   Overcast
3:53 AM 45.0 °F 38.5 °F 44.1 °F 97% 29.45 in 7.0 mi South 13.8 mph - N/A   Overcast
4:35 AM 44.6 °F 38.4 °F 44.6 °F 100% 29.46 in 7.0 mi South 12.7 mph - N/A   Overcast
4:53 AM 45.0 °F 38.5 °F 44.1 °F 97% 29.42 in 7.0 mi South 13.8 mph - N/A   Overcast
5:09 AM 44.6 °F 38.4 °F 44.6 °F 100% 29.44 in 8.0 mi South 12.7 mph - N/A   Overcast
5:17 AM 44.6 °F 38.4 °F 44.6 °F 100% 29.44 in 7.0 mi South 12.7 mph - N/A   Overcast
5:26 AM 44.6 °F 37.8 °F 44.6 °F 100% 29.43 in 8.0 mi South 15.0 mph - N/A   Overcast
5:36 AM 44.6 °F 37.4 °F 44.6 °F 100% 29.42 in 9.0 mi South 16.1 mph 21.9 mph N/A   Overcast
5:43 AM 44.6 °F 38.1 °F 44.6 °F 100% 29.42 in 9.0 mi South 13.8 mph 21.9 mph N/A   Overcast
5:53 AM 45.0 °F 38.5 °F 44.1 °F 97% 29.39 in 9.0 mi South 13.8 mph 20.7 mph N/A   Overcast
6:32 AM 44.6 °F 38.1 °F 44.6 °F 100% 29.41 in 8.0 mi South 13.8 mph - N/A   Overcast
6:53 AM 45.0 °F 38.9 °F 44.1 °F 97% 29.37 in 9.0 mi South 12.7 mph - N/A   Overcast
7:50 AM 44.6 °F 38.8 °F 44.6 °F 100% 29.36 in 8.0 mi SSE 11.5 mph - 0.01 in Rain Light Rain
7:53 AM 44.1 °F 38.6 °F 44.1 °F 100% 29.33 in 8.0 mi SSE 10.4 mph - 0.01 in Rain Light Rain
8:10 AM 44.6 °F 39.2 °F 44.6 °F 100% 29.35 in 9.0 mi SSE 10.4 mph - 0.00 in Rain Light Rain
8:28 AM 44.6 °F 39.7 °F 44.6 °F 100% 29.35 in 9.0 mi SSE 9.2 mph - 0.00 in Rain Light Rain
8:53 AM 44.1 °F 40.1 °F 44.1 °F 100% 29.30 in 8.0 mi SE 6.9 mph - 0.01 in Rain Light Rain
9:19 AM 44.6 °F 42.2 °F 44.6 °F 100% 29.32 in 10.0 mi SE 4.6 mph - 0.00 in Rain Light Rain
9:29 AM 42.8 °F 40.1 °F 42.8 °F 100% 29.31 in 9.0 mi SE 4.6 mph - 0.00 in Rain Light Rain
9:38 AM 42.8 °F - 42.8 °F 100% 29.31 in 10.0 mi Calm Calm - 0.00 in Rain Light Rain
9:53 AM 43.0 °F - 43.0 °F 100% 29.27 in 8.0 mi Calm Calm - 0.01 in Rain Light Rain
10:53 AM 43.0 °F 41.3 °F 42.1 °F 97% 29.22 in 10.0 mi NE 3.5 mph - 0.00 in   Overcast
11:53 AM 44.1 °F 39.0 °F 43.0 °F 96% 29.18 in 9.0 mi NNE 9.2 mph - 0.01 in Rain Light Rain
12:01 PM 44.6 °F 39.7 °F 42.8 °F 93% 29.22 in 10.0 mi NNE 9.2 mph - 0.00 in Rain Light Rain
12:10 PM 44.6 °F 40.2 °F 42.8 °F 93% 29.21 in 8.0 mi NNE 8.1 mph - 0.00 in Rain Light Rain
12:29 PM 44.6 °F 39.7 °F 42.8 °F 93% 29.19 in 8.0 mi NNE 9.2 mph - 0.01 in Rain Light Rain
12:53 PM 44.1 °F 38.6 °F 43.0 °F 96% 29.15 in 10.0 mi NNE 10.4 mph - 0.01 in Rain Light Rain
1:34 PM 44.6 °F 37.4 °F 42.8 °F 93% 29.15 in 10.0 mi North 16.1 mph - 0.02 in Rain Light Rain
1:53 PM 44.1 °F 36.5 °F 43.0 °F 96% 29.10 in 9.0 mi NNE 17.3 mph - 0.03 in Rain Light Rain
2:22 PM 44.6 °F 36.9 °F 42.8 °F 93% 29.11 in 10.0 mi North 18.4 mph - 0.01 in Rain Light Rain
2:46 PM 44.6 °F 36.6 °F 42.8 °F 93% 29.09 in 9.0 mi North 19.6 mph - 0.02 in Rain Light Rain
2:53 PM 44.1 °F 36.8 °F 42.1 °F 93% 29.05 in 9.0 mi North 16.1 mph - 0.03 in Rain Light Rain
3:53 PM 44.1 °F 37.4 °F 42.1 °F 93% 29.03 in 9.0 mi NNW 13.8 mph - 0.02 in Rain Light Rain
4:03 PM 42.8 °F 35.8 °F 42.8 °F 100% 29.06 in 9.0 mi NNW 13.8 mph 23.0 mph 0.01 in Rain Light Rain
4:53 PM 44.1 °F 37.1 °F 42.1 °F 93% 29.02 in 10.0 mi NW 15.0 mph - 0.03 in Rain Light Rain
5:04 PM 44.6 °F 38.1 °F 42.8 °F 93% 29.05 in 10.0 mi NW 13.8 mph - 0.00 in Rain Light Rain
5:35 PM 44.6 °F 38.1 °F 42.8 °F 93% 29.04 in 10.0 mi NW 13.8 mph - 0.01 in Rain Light Rain
5:53 PM 44.1 °F 38.1 °F 43.0 °F 96% 29.00 in 10.0 mi WNW 11.5 mph - 0.01 in   Overcast
6:03 PM 44.6 °F 38.8 °F 42.8 °F 93% 29.04 in 10.0 mi WNW 11.5 mph - N/A   Overcast
6:53 PM 43.0 °F 34.5 °F 41.0 °F 93% 29.02 in 8.0 mi NW 19.6 mph 33.4 mph 0.00 in   Overcast
7:01 PM 42.8 °F 34.5 °F 41.0 °F 93% 29.06 in 10.0 mi NW 18.4 mph 32.2 mph N/A   Overcast
7:33 PM 42.8 °F 33.3 °F 39.2 °F 87% 29.07 in 10.0 mi WNW 24.2 mph 29.9 mph N/A   Overcast
7:53 PM 43.0 °F 33.8 °F 39.0 °F 86% 29.04 in 10.0 mi NW 23.0 mph 36.8 mph N/A   Overcast
8:53 PM 42.1 °F 32.1 °F 37.9 °F 85% 29.08 in 10.0 mi WNW 25.3 mph 32.2 mph 0.00 in   Overcast
9:26 PM 42.8 °F 33.5 °F 33.8 °F 70% 29.12 in 10.0 mi WNW 23.0 mph 33.4 mph N/A   Overcast
9:53 PM 42.1 °F 32.3 °F 33.1 °F 70% 29.10 in 10.0 mi WNW 24.2 mph 32.2 mph N/A   Overcast
10:53 PM 43.0 °F 34.2 °F 35.1 °F 74% 29.13 in 10.0 mi West 20.7 mph 31.1 mph N/A   Overcast
11:53 PM 43.0 °F 35.1 °F 37.0 °F 80% 29.15 in 10.0 mi West 17.3 mph 29.9 mph N/A   Overcast